sensor_id;sensor_type;location;lat;lon;timestamp;P1;durP1;ratioP1;P2;durP2;ratioP2
21729;SDS011;11027;51.030;13.812;2023-06-14T00:01:24;5.53;;;1.90;;
21729;SDS011;11027;51.030;13.812;2023-06-14T00:03:49;2.67;;;1.85;;
21729;SDS011;11027;51.030;13.812;2023-06-14T00:06:14;2.97;;;1.80;;
21729;SDS011;11027;51.030;13.812;2023-06-14T00:08:39;2.75;;;1.63;;
21729;SDS011;11027;51.030;13.812;2023-06-14T00:11:05;3.50;;;2.13;;
21729;SDS011;11027;51.030;13.812;2023-06-14T00:13:31;6.55;;;1.75;;
21729;SDS011;11027;51.030;13.812;2023-06-14T00:15:56;2.35;;;1.90;;
21729;SDS011;11027;51.030;13.812;2023-06-14T00:18:22;4.25;;;1.80;;
21729;SDS011;11027;51.030;13.812;2023-06-14T00:20:49;3.45;;;1.60;;
21729;SDS011;11027;51.030;13.812;2023-06-14T00:23:14;4.65;;;1.90;;
21729;SDS011;11027;51.030;13.812;2023-06-14T00:25:40;6.60;;;1.80;;
21729;SDS011;11027;51.030;13.812;2023-06-14T00:28:05;1.67;;;1.52;;
21729;SDS011;11027;51.030;13.812;2023-06-14T00:30:30;2.65;;;1.80;;
21729;SDS011;11027;51.030;13.812;2023-06-14T00:32:55;6.68;;;1.70;;
21729;SDS011;11027;51.030;13.812;2023-06-14T00:35:21;2.28;;;1.98;;
21729;SDS011;11027;51.030;13.812;2023-06-14T00:37:46;5.55;;;1.77;;
21729;SDS011;11027;51.030;13.812;2023-06-14T00:40:11;5.00;;;2.13;;
21729;SDS011;11027;51.030;13.812;2023-06-14T00:42:36;3.13;;;1.92;;
21729;SDS011;11027;51.030;13.812;2023-06-14T00:45:02;6.78;;;1.73;;
21729;SDS011;11027;51.030;13.812;2023-06-14T00:47:27;3.85;;;1.90;;
21729;SDS011;11027;51.030;13.812;2023-06-14T00:49:53;1.95;;;1.83;;
21729;SDS011;11027;51.030;13.812;2023-06-14T00:52:20;3.72;;;1.80;;
21729;SDS011;11027;51.030;13.812;2023-06-14T00:54:46;2.85;;;1.90;;
21729;SDS011;11027;51.030;13.812;2023-06-14T00:57:11;5.68;;;1.80;;
21729;SDS011;11027;51.030;13.812;2023-06-14T00:59:38;2.10;;;1.88;;
21729;SDS011;11027;51.030;13.812;2023-06-14T01:02:07;3.17;;;1.90;;
21729;SDS011;11027;51.030;13.812;2023-06-14T01:04:33;2.13;;;1.85;;
21729;SDS011;11027;51.030;13.812;2023-06-14T01:07:10;3.42;;;1.60;;
21729;SDS011;11027;51.030;13.812;2023-06-14T01:10:18;3.88;;;1.98;;
21729;SDS011;11027;51.030;13.812;2023-06-14T01:12:58;4.03;;;1.85;;
21729;SDS011;11027;51.030;13.812;2023-06-14T01:15:30;2.63;;;2.08;;
21729;SDS011;11027;51.030;13.812;2023-06-14T01:17:56;2.40;;;2.10;;
21729;SDS011;11027;51.030;13.812;2023-06-14T01:20:28;3.15;;;1.75;;
21729;SDS011;11027;51.030;13.812;2023-06-14T01:22:54;5.78;;;1.98;;
21729;SDS011;11027;51.030;13.812;2023-06-14T01:25:20;2.85;;;1.70;;
21729;SDS011;11027;51.030;13.812;2023-06-14T01:27:47;3.25;;;2.15;;
21729;SDS011;11027;51.030;13.812;2023-06-14T01:30:14;2.55;;;2.05;;
21729;SDS011;11027;51.030;13.812;2023-06-14T01:32:40;6.70;;;2.55;;
21729;SDS011;11027;51.030;13.812;2023-06-14T01:35:05;3.20;;;2.13;;
21729;SDS011;11027;51.030;13.812;2023-06-14T01:37:31;3.90;;;1.80;;
21729;SDS011;11027;51.030;13.812;2023-06-14T01:39:56;2.47;;;2.05;;
21729;SDS011;11027;51.030;13.812;2023-06-14T01:42:24;3.88;;;2.33;;
21729;SDS011;11027;51.030;13.812;2023-06-14T01:44:50;3.25;;;1.90;;
21729;SDS011;11027;51.030;13.812;2023-06-14T01:47:17;2.35;;;2.15;;
21729;SDS011;11027;51.030;13.812;2023-06-14T01:49:42;3.50;;;2.30;;
21729;SDS011;11027;51.030;13.812;2023-06-14T01:52:07;7.80;;;2.30;;
21729;SDS011;11027;51.030;13.812;2023-06-14T01:54:34;3.45;;;2.30;;
21729;SDS011;11027;51.030;13.812;2023-06-14T01:57:02;3.67;;;2.30;;
21729;SDS011;11027;51.030;13.812;2023-06-14T01:59:28;2.67;;;2.03;;
21729;SDS011;11027;51.030;13.812;2023-06-14T02:01:53;4.80;;;2.05;;
21729;SDS011;11027;51.030;13.812;2023-06-14T02:04:18;4.07;;;2.20;;
21729;SDS011;11027;51.030;13.812;2023-06-14T02:06:44;8.35;;;2.38;;
21729;SDS011;11027;51.030;13.812;2023-06-14T02:09:09;4.03;;;2.17;;
21729;SDS011;11027;51.030;13.812;2023-06-14T02:11:34;3.85;;;2.33;;
21729;SDS011;11027;51.030;13.812;2023-06-14T02:13:59;2.22;;;2.03;;
21729;SDS011;11027;51.030;13.812;2023-06-14T02:16:25;5.45;;;2.10;;
21729;SDS011;11027;51.030;13.812;2023-06-14T02:18:52;4.38;;;2.00;;
21729;SDS011;11027;51.030;13.812;2023-06-14T02:21:18;6.47;;;1.95;;
21729;SDS011;11027;51.030;13.812;2023-06-14T02:23:43;2.38;;;2.15;;
21729;SDS011;11027;51.030;13.812;2023-06-14T02:26:08;2.97;;;2.22;;
21729;SDS011;11027;51.030;13.812;2023-06-14T02:28:33;6.93;;;2.38;;
21729;SDS011;11027;51.030;13.812;2023-06-14T02:31:00;2.75;;;2.40;;
21729;SDS011;11027;51.030;13.812;2023-06-14T02:33:25;3.67;;;2.20;;
21729;SDS011;11027;51.030;13.812;2023-06-14T02:35:51;5.45;;;2.60;;
21729;SDS011;11027;51.030;13.812;2023-06-14T02:38:17;2.80;;;2.40;;
21729;SDS011;11027;51.030;13.812;2023-06-14T02:40:42;2.63;;;2.15;;
21729;SDS011;11027;51.030;13.812;2023-06-14T02:43:08;7.18;;;2.40;;
21729;SDS011;11027;51.030;13.812;2023-06-14T02:45:33;3.25;;;2.40;;
21729;SDS011;11027;51.030;13.812;2023-06-14T02:47:58;3.45;;;2.50;;
21729;SDS011;11027;51.030;13.812;2023-06-14T02:50:24;4.25;;;2.65;;
21729;SDS011;11027;51.030;13.812;2023-06-14T02:52:49;7.15;;;2.53;;
21729;SDS011;11027;51.030;13.812;2023-06-14T02:55:14;2.97;;;2.65;;
21729;SDS011;11027;51.030;13.812;2023-06-14T02:57:40;5.53;;;2.55;;
21729;SDS011;11027;51.030;13.812;2023-06-14T03:00:05;4.18;;;2.55;;
21729;SDS011;11027;51.030;13.812;2023-06-14T03:02:34;5.13;;;2.35;;
21729;SDS011;11027;51.030;13.812;2023-06-14T03:04:59;4.38;;;2.47;;
21729;SDS011;11027;51.030;13.812;2023-06-14T03:07:26;6.13;;;2.30;;
21729;SDS011;11027;51.030;13.812;2023-06-14T03:09:52;5.65;;;2.40;;
21729;SDS011;11027;51.030;13.812;2023-06-14T03:12:18;3.05;;;2.75;;
21729;SDS011;11027;51.030;13.812;2023-06-14T03:14:43;7.50;;;2.70;;
21729;SDS011;11027;51.030;13.812;2023-06-14T03:17:11;8.43;;;3.13;;
21729;SDS011;11027;51.030;13.812;2023-06-14T03:19:36;3.78;;;2.40;;
21729;SDS011;11027;51.030;13.812;2023-06-14T03:22:02;6.07;;;2.75;;
21729;SDS011;11027;51.030;13.812;2023-06-14T03:24:27;3.15;;;2.58;;
21729;SDS011;11027;51.030;13.812;2023-06-14T03:26:53;3.42;;;2.58;;
21729;SDS011;11027;51.030;13.812;2023-06-14T03:29:19;3.35;;;2.80;;
21729;SDS011;11027;51.030;13.812;2023-06-14T03:32:00;4.40;;;2.92;;
21729;SDS011;11027;51.030;13.812;2023-06-14T03:34:26;3.72;;;2.50;;
21729;SDS011;11027;51.030;13.812;2023-06-14T03:36:52;4.95;;;2.50;;
21729;SDS011;11027;51.030;13.812;2023-06-14T03:39:17;3.50;;;2.45;;
21729;SDS011;11027;51.030;13.812;2023-06-14T03:41:43;3.40;;;2.55;;
21729;SDS011;11027;51.030;13.812;2023-06-14T03:44:08;4.18;;;2.50;;
21729;SDS011;11027;51.030;13.812;2023-06-14T03:46:34;4.25;;;2.65;;
21729;SDS011;11027;51.030;13.812;2023-06-14T03:48:59;2.47;;;2.20;;
21729;SDS011;11027;51.030;13.812;2023-06-14T03:51:25;3.47;;;2.35;;
21729;SDS011;11027;51.030;13.812;2023-06-14T03:53:51;4.50;;;2.40;;
21729;SDS011;11027;51.030;13.812;2023-06-14T03:56:16;3.83;;;2.88;;
21729;SDS011;11027;51.030;13.812;2023-06-14T03:58:41;4.32;;;2.67;;
21729;SDS011;11027;51.030;13.812;2023-06-14T04:01:06;3.50;;;2.72;;
21729;SDS011;11027;51.030;13.812;2023-06-14T04:03:32;3.35;;;2.70;;
21729;SDS011;11027;51.030;13.812;2023-06-14T04:05:58;3.65;;;2.63;;
21729;SDS011;11027;51.030;13.812;2023-06-14T04:08:24;3.85;;;2.67;;
21729;SDS011;11027;51.030;13.812;2023-06-14T04:10:50;3.35;;;2.80;;
21729;SDS011;11027;51.030;13.812;2023-06-14T04:13:15;7.15;;;3.05;;
21729;SDS011;11027;51.030;13.812;2023-06-14T04:15:40;2.97;;;2.63;;
21729;SDS011;11027;51.030;13.812;2023-06-14T04:18:11;5.70;;;3.10;;
21729;SDS011;11027;51.030;13.812;2023-06-14T04:20:36;6.80;;;3.00;;
21729;SDS011;11027;51.030;13.812;2023-06-14T04:23:14;5.40;;;3.00;;
21729;SDS011;11027;51.030;13.812;2023-06-14T04:25:43;5.87;;;2.30;;
21729;SDS011;11027;51.030;13.812;2023-06-14T04:28:13;5.25;;;2.95;;
21729;SDS011;11027;51.030;13.812;2023-06-14T04:30:40;5.97;;;3.10;;
21729;SDS011;11027;51.030;13.812;2023-06-14T04:33:09;4.35;;;2.50;;
21729;SDS011;11027;51.030;13.812;2023-06-14T04:35:35;3.15;;;2.58;;
21729;SDS011;11027;51.030;13.812;2023-06-14T04:38:02;7.28;;;3.15;;
21729;SDS011;11027;51.030;13.812;2023-06-14T04:40:30;5.78;;;2.88;;
21729;SDS011;11027;51.030;13.812;2023-06-14T04:42:56;6.80;;;2.90;;
21729;SDS011;11027;51.030;13.812;2023-06-14T04:45:22;4.65;;;2.97;;
21729;SDS011;11027;51.030;13.812;2023-06-14T04:47:47;5.22;;;3.20;;
21729;SDS011;11027;51.030;13.812;2023-06-14T04:50:12;5.32;;;2.95;;
21729;SDS011;11027;51.030;13.812;2023-06-14T04:52:38;3.45;;;3.15;;
21729;SDS011;11027;51.030;13.812;2023-06-14T04:55:03;7.68;;;3.60;;
21729;SDS011;11027;51.030;13.812;2023-06-14T04:57:28;4.55;;;3.50;;
21729;SDS011;11027;51.030;13.812;2023-06-14T04:59:54;3.65;;;3.10;;
21729;SDS011;11027;51.030;13.812;2023-06-14T05:02:20;4.82;;;3.10;;
21729;SDS011;11027;51.030;13.812;2023-06-14T05:04:49;4.20;;;3.30;;
21729;SDS011;11027;51.030;13.812;2023-06-14T05:07:15;4.40;;;3.08;;
21729;SDS011;11027;51.030;13.812;2023-06-14T05:09:40;3.65;;;3.33;;
21729;SDS011;11027;51.030;13.812;2023-06-14T05:12:06;3.72;;;3.25;;
21729;SDS011;11027;51.030;13.812;2023-06-14T05:14:34;4.88;;;3.10;;
21729;SDS011;11027;51.030;13.812;2023-06-14T05:17:00;5.10;;;3.35;;
21729;SDS011;11027;51.030;13.812;2023-06-14T05:19:25;5.07;;;3.15;;
21729;SDS011;11027;51.030;13.812;2023-06-14T05:21:51;6.03;;;3.30;;
21729;SDS011;11027;51.030;13.812;2023-06-14T05:24:17;3.53;;;3.22;;
21729;SDS011;11027;51.030;13.812;2023-06-14T05:26:42;6.47;;;3.47;;
21729;SDS011;11027;51.030;13.812;2023-06-14T05:29:08;4.55;;;3.45;;
21729;SDS011;11027;51.030;13.812;2023-06-14T05:31:33;6.55;;;3.42;;
21729;SDS011;11027;51.030;13.812;2023-06-14T05:33:59;4.60;;;3.70;;
21729;SDS011;11027;51.030;13.812;2023-06-14T05:36:24;4.22;;;3.83;;
21729;SDS011;11027;51.030;13.812;2023-06-14T05:38:50;8.73;;;3.60;;
21729;SDS011;11027;51.030;13.812;2023-06-14T05:41:16;4.53;;;3.60;;
21729;SDS011;11027;51.030;13.812;2023-06-14T05:43:41;8.27;;;3.78;;
21729;SDS011;11027;51.030;13.812;2023-06-14T05:46:06;5.22;;;3.42;;
21729;SDS011;11027;51.030;13.812;2023-06-14T05:48:32;5.13;;;3.75;;
21729;SDS011;11027;51.030;13.812;2023-06-14T05:50:58;7.88;;;3.78;;
21729;SDS011;11027;51.030;13.812;2023-06-14T05:53:24;9.20;;;3.53;;
21729;SDS011;11027;51.030;13.812;2023-06-14T05:55:49;7.30;;;3.55;;
21729;SDS011;11027;51.030;13.812;2023-06-14T05:58:16;4.13;;;3.72;;
21729;SDS011;11027;51.030;13.812;2023-06-14T06:00:42;6.85;;;4.10;;
21729;SDS011;11027;51.030;13.812;2023-06-14T06:03:07;5.80;;;3.83;;
21729;SDS011;11027;51.030;13.812;2023-06-14T06:05:34;5.28;;;4.00;;
21729;SDS011;11027;51.030;13.812;2023-06-14T06:07:59;7.25;;;4.10;;
21729;SDS011;11027;51.030;13.812;2023-06-14T06:10:25;9.45;;;4.32;;
21729;SDS011;11027;51.030;13.812;2023-06-14T06:12:50;6.38;;;3.90;;
21729;SDS011;11027;51.030;13.812;2023-06-14T06:15:17;4.35;;;3.95;;
21729;SDS011;11027;51.030;13.812;2023-06-14T06:17:43;9.52;;;4.13;;
21729;SDS011;11027;51.030;13.812;2023-06-14T06:20:09;5.95;;;4.07;;
21729;SDS011;11027;51.030;13.812;2023-06-14T06:22:34;7.97;;;4.38;;
21729;SDS011;11027;51.030;13.812;2023-06-14T06:25:00;6.55;;;4.13;;
21729;SDS011;11027;51.030;13.812;2023-06-14T06:27:25;4.82;;;4.10;;
21729;SDS011;11027;51.030;13.812;2023-06-14T06:29:51;5.47;;;3.95;;
21729;SDS011;11027;51.030;13.812;2023-06-14T06:32:16;7.45;;;3.92;;
21729;SDS011;11027;51.030;13.812;2023-06-14T06:34:42;4.50;;;4.10;;
21729;SDS011;11027;51.030;13.812;2023-06-14T06:37:07;4.95;;;4.30;;
21729;SDS011;11027;51.030;13.812;2023-06-14T06:39:32;4.43;;;4.00;;
21729;SDS011;11027;51.030;13.812;2023-06-14T06:41:58;7.88;;;4.07;;
21729;SDS011;11027;51.030;13.812;2023-06-14T06:44:23;4.45;;;3.83;;
21729;SDS011;11027;51.030;13.812;2023-06-14T06:46:48;6.47;;;3.50;;
21729;SDS011;11027;51.030;13.812;2023-06-14T06:49:13;9.02;;;3.97;;
21729;SDS011;11027;51.030;13.812;2023-06-14T06:51:41;4.20;;;3.78;;
21729;SDS011;11027;51.030;13.812;2023-06-14T06:54:07;5.47;;;4.20;;
21729;SDS011;11027;51.030;13.812;2023-06-14T06:56:33;5.63;;;4.18;;
21729;SDS011;11027;51.030;13.812;2023-06-14T06:58:58;7.97;;;3.92;;
21729;SDS011;11027;51.030;13.812;2023-06-14T07:01:24;6.88;;;4.10;;
21729;SDS011;11027;51.030;13.812;2023-06-14T07:03:49;7.07;;;4.15;;
21729;SDS011;11027;51.030;13.812;2023-06-14T07:06:14;4.15;;;3.75;;
21729;SDS011;11027;51.030;13.812;2023-06-14T07:08:42;4.15;;;3.72;;
21729;SDS011;11027;51.030;13.812;2023-06-14T07:11:07;6.05;;;3.55;;
21729;SDS011;11027;51.030;13.812;2023-06-14T07:13:32;4.70;;;3.90;;
21729;SDS011;11027;51.030;13.812;2023-06-14T07:15:58;5.57;;;4.20;;
21729;SDS011;11027;51.030;13.812;2023-06-14T07:18:25;4.57;;;3.78;;
21729;SDS011;11027;51.030;13.812;2023-06-14T07:20:51;5.60;;;3.53;;
21729;SDS011;11027;51.030;13.812;2023-06-14T07:23:17;4.10;;;3.50;;
21729;SDS011;11027;51.030;13.812;2023-06-14T07:25:42;6.53;;;4.13;;
21729;SDS011;11027;51.030;13.812;2023-06-14T07:28:07;7.07;;;4.38;;
21729;SDS011;11027;51.030;13.812;2023-06-14T07:30:32;6.63;;;3.75;;
21729;SDS011;11027;51.030;13.812;2023-06-14T07:32:58;5.93;;;3.67;;
21729;SDS011;11027;51.030;13.812;2023-06-14T07:35:23;4.10;;;3.50;;
21729;SDS011;11027;51.030;13.812;2023-06-14T07:37:48;6.60;;;3.60;;
21729;SDS011;11027;51.030;13.812;2023-06-14T07:40:14;4.60;;;3.45;;
21729;SDS011;11027;51.030;13.812;2023-06-14T07:42:40;3.53;;;3.10;;
21729;SDS011;11027;51.030;13.812;2023-06-14T07:45:05;4.65;;;2.88;;
21729;SDS011;11027;51.030;13.812;2023-06-14T07:47:31;3.70;;;2.75;;
21729;SDS011;11027;51.030;13.812;2023-06-14T07:49:57;4.03;;;2.78;;
21729;SDS011;11027;51.030;13.812;2023-06-14T07:52:22;2.92;;;2.63;;
21729;SDS011;11027;51.030;13.812;2023-06-14T07:54:48;3.85;;;2.58;;
21729;SDS011;11027;51.030;13.812;2023-06-14T07:57:13;2.45;;;2.20;;
21729;SDS011;11027;51.030;13.812;2023-06-14T07:59:38;4.57;;;2.22;;
21729;SDS011;11027;51.030;13.812;2023-06-14T08:02:04;3.80;;;2.15;;
21729;SDS011;11027;51.030;13.812;2023-06-14T08:04:29;3.97;;;2.20;;
21729;SDS011;11027;51.030;13.812;2023-06-14T08:06:54;1.95;;;1.83;;
21729;SDS011;11027;51.030;13.812;2023-06-14T08:09:20;2.28;;;2.08;;
21729;SDS011;11027;51.030;13.812;2023-06-14T08:11:45;2.80;;;2.60;;
21729;SDS011;11027;51.030;13.812;2023-06-14T08:14:11;2.55;;;2.33;;
21729;SDS011;11027;51.030;13.812;2023-06-14T08:16:36;2.38;;;2.17;;
21729;SDS011;11027;51.030;13.812;2023-06-14T08:19:02;5.90;;;1.80;;
21729;SDS011;11027;51.030;13.812;2023-06-14T08:21:28;2.83;;;2.25;;
21729;SDS011;11027;51.030;13.812;2023-06-14T08:23:54;4.55;;;2.10;;
21729;SDS011;11027;51.030;13.812;2023-06-14T08:26:19;3.17;;;2.20;;
21729;SDS011;11027;51.030;13.812;2023-06-14T08:28:45;3.53;;;1.92;;
21729;SDS011;11027;51.030;13.812;2023-06-14T08:31:11;2.80;;;2.50;;
21729;SDS011;11027;51.030;13.812;2023-06-14T08:33:37;2.85;;;2.33;;
21729;SDS011;11027;51.030;13.812;2023-06-14T08:36:04;2.30;;;1.75;;
21729;SDS011;11027;51.030;13.812;2023-06-14T08:38:30;4.68;;;2.10;;
21729;SDS011;11027;51.030;13.812;2023-06-14T08:40:57;3.40;;;1.83;;
21729;SDS011;11027;51.030;13.812;2023-06-14T08:43:23;2.20;;;1.60;;
21729;SDS011;11027;51.030;13.812;2023-06-14T08:45:48;2.50;;;2.03;;
21729;SDS011;11027;51.030;13.812;2023-06-14T08:48:18;2.88;;;2.20;;
21729;SDS011;11027;51.030;13.812;2023-06-14T08:50:45;2.90;;;2.15;;
21729;SDS011;11027;51.030;13.812;2023-06-14T08:53:13;4.80;;;2.05;;
21729;SDS011;11027;51.030;13.812;2023-06-14T08:55:41;3.13;;;2.30;;
21729;SDS011;11027;51.030;13.812;2023-06-14T08:58:08;4.00;;;1.85;;
21729;SDS011;11027;51.030;13.812;2023-06-14T09:00:34;2.17;;;1.98;;
21729;SDS011;11027;51.030;13.812;2023-06-14T09:03:03;3.92;;;2.35;;
21729;SDS011;11027;51.030;13.812;2023-06-14T09:05:28;2.17;;;1.98;;
21729;SDS011;11027;51.030;13.812;2023-06-14T09:07:54;3.17;;;2.47;;
21729;SDS011;11027;51.030;13.812;2023-06-14T09:10:25;4.10;;;2.20;;
21729;SDS011;11027;51.030;13.812;2023-06-14T09:12:52;2.20;;;2.00;;
21729;SDS011;11027;51.030;13.812;2023-06-14T09:15:18;3.97;;;2.00;;
21729;SDS011;11027;51.030;13.812;2023-06-14T09:17:43;2.05;;;1.90;;
21729;SDS011;11027;51.030;13.812;2023-06-14T09:20:08;2.97;;;2.22;;
21729;SDS011;11027;51.030;13.812;2023-06-14T09:22:35;2.42;;;2.03;;
21729;SDS011;11027;51.030;13.812;2023-06-14T09:25:01;3.28;;;2.40;;
21729;SDS011;11027;51.030;13.812;2023-06-14T09:27:27;4.22;;;2.40;;
21729;SDS011;11027;51.030;13.812;2023-06-14T09:29:53;3.28;;;2.40;;
21729;SDS011;11027;51.030;13.812;2023-06-14T09:32:19;4.85;;;2.22;;
21729;SDS011;11027;51.030;13.812;2023-06-14T09:34:46;6.20;;;2.42;;
21729;SDS011;11027;51.030;13.812;2023-06-14T09:37:11;3.75;;;2.40;;
21729;SDS011;11027;51.030;13.812;2023-06-14T09:39:49;5.88;;;2.60;;
21729;SDS011;11027;51.030;13.812;2023-06-14T09:42:17;4.05;;;2.63;;
21729;SDS011;11027;51.030;13.812;2023-06-14T09:44:48;2.33;;;2.13;;
21729;SDS011;11027;51.030;13.812;2023-06-14T09:47:14;6.85;;;2.85;;
21729;SDS011;11027;51.030;13.812;2023-06-14T09:49:40;8.40;;;2.53;;
21729;SDS011;11027;51.030;13.812;2023-06-14T09:52:06;4.75;;;2.47;;
21729;SDS011;11027;51.030;13.812;2023-06-14T09:54:35;4.75;;;2.45;;
21729;SDS011;11027;51.030;13.812;2023-06-14T09:57:26;4.30;;;2.70;;
21729;SDS011;11027;51.030;13.812;2023-06-14T09:59:52;3.88;;;3.22;;
21729;SDS011;11027;51.030;13.812;2023-06-14T10:07:35;8.82;;;2.15;;
21729;SDS011;11027;51.030;13.812;2023-06-14T10:10:09;2.97;;;1.80;;
21729;SDS011;11027;51.030;13.812;2023-06-14T10:12:35;5.05;;;2.00;;
21729;SDS011;11027;51.030;13.812;2023-06-14T10:15:00;4.45;;;2.05;;
21729;SDS011;11027;51.030;13.812;2023-06-14T10:19:58;3.05;;;2.00;;
21729;SDS011;11027;51.030;13.812;2023-06-14T10:22:37;5.15;;;2.25;;
21729;SDS011;11027;51.030;13.812;2023-06-14T10:25:25;2.75;;;2.08;;
21729;SDS011;11027;51.030;13.812;2023-06-14T10:27:52;6.22;;;2.33;;
21729;SDS011;11027;51.030;13.812;2023-06-14T10:30:18;3.53;;;1.90;;
21729;SDS011;11027;51.030;13.812;2023-06-14T10:33:06;4.80;;;2.10;;
21729;SDS011;11027;51.030;13.812;2023-06-14T10:35:32;2.95;;;2.05;;
21729;SDS011;11027;51.030;13.812;2023-06-14T10:38:07;3.42;;;1.98;;
21729;SDS011;11027;51.030;13.812;2023-06-14T10:40:34;3.40;;;2.50;;
21729;SDS011;11027;51.030;13.812;2023-06-14T10:43:01;6.25;;;2.30;;
21729;SDS011;11027;51.030;13.812;2023-06-14T10:45:26;2.20;;;2.00;;
21729;SDS011;11027;51.030;13.812;2023-06-14T10:47:51;3.13;;;2.30;;
21729;SDS011;11027;51.030;13.812;2023-06-14T10:50:22;4.65;;;2.38;;
21729;SDS011;11027;51.030;13.812;2023-06-14T10:52:53;3.63;;;2.33;;
21729;SDS011;11027;51.030;13.812;2023-06-14T10:55:18;3.40;;;2.10;;
21729;SDS011;11027;51.030;13.812;2023-06-14T11:00:12;2.60;;;1.90;;
21729;SDS011;11027;51.030;13.812;2023-06-14T11:02:46;2.72;;;2.20;;
21729;SDS011;11027;51.030;13.812;2023-06-14T11:05:49;4.75;;;2.10;;
21729;SDS011;11027;51.030;13.812;2023-06-14T11:10:59;4.00;;;2.38;;
21729;SDS011;11027;51.030;13.812;2023-06-14T11:13:25;4.53;;;2.38;;
21729;SDS011;11027;51.030;13.812;2023-06-14T11:15:51;4.75;;;2.58;;
21729;SDS011;11027;51.030;13.812;2023-06-14T11:18:22;2.70;;;2.50;;
21729;SDS011;11027;51.030;13.812;2023-06-14T11:20:52;5.05;;;2.50;;
21729;SDS011;11027;51.030;13.812;2023-06-14T11:23:17;3.45;;;2.42;;
21729;SDS011;11027;51.030;13.812;2023-06-14T11:25:42;2.97;;;2.25;;
21729;SDS011;11027;51.030;13.812;2023-06-14T11:28:08;6.93;;;2.60;;
21729;SDS011;11027;51.030;13.812;2023-06-14T11:30:33;4.45;;;2.67;;
21729;SDS011;11027;51.030;13.812;2023-06-14T11:32:58;3.35;;;2.70;;
21729;SDS011;11027;51.030;13.812;2023-06-14T11:35:24;2.47;;;2.28;;
21729;SDS011;11027;51.030;13.812;2023-06-14T11:37:54;3.47;;;2.70;;
21729;SDS011;11027;51.030;13.812;2023-06-14T11:40:25;3.67;;;2.80;;
21729;SDS011;11027;51.030;13.812;2023-06-14T11:42:57;3.08;;;2.20;;
21729;SDS011;11027;51.030;13.812;2023-06-14T11:45:24;4.55;;;2.10;;
21729;SDS011;11027;51.030;13.812;2023-06-14T11:47:50;3.70;;;2.60;;
21729;SDS011;11027;51.030;13.812;2023-06-14T11:50:15;3.20;;;2.63;;
21729;SDS011;11027;51.030;13.812;2023-06-14T11:52:40;4.43;;;2.60;;
21729;SDS011;11027;51.030;13.812;2023-06-14T11:55:06;4.18;;;2.42;;
21729;SDS011;11027;51.030;13.812;2023-06-14T11:57:35;5.32;;;2.35;;
21729;SDS011;11027;51.030;13.812;2023-06-14T12:00:04;5.03;;;2.45;;
21729;SDS011;11027;51.030;13.812;2023-06-14T12:02:32;4.07;;;2.63;;
21729;SDS011;11027;51.030;13.812;2023-06-14T12:05:03;4.10;;;2.47;;
21729;SDS011;11027;51.030;13.812;2023-06-14T12:07:30;5.03;;;2.50;;
21729;SDS011;11027;51.030;13.812;2023-06-14T12:12:21;6.03;;;2.33;;
21729;SDS011;11027;51.030;13.812;2023-06-14T12:14:47;4.10;;;2.38;;
21729;SDS011;11027;51.030;13.812;2023-06-14T12:17:13;5.93;;;2.53;;
21729;SDS011;11027;51.030;13.812;2023-06-14T12:19:41;4.60;;;2.38;;
21729;SDS011;11027;51.030;13.812;2023-06-14T12:22:10;3.92;;;2.38;;
21729;SDS011;11027;51.030;13.812;2023-06-14T12:24:36;4.78;;;2.58;;
21729;SDS011;11027;51.030;13.812;2023-06-14T12:27:03;4.55;;;2.30;;
21729;SDS011;11027;51.030;13.812;2023-06-14T12:29:29;5.57;;;2.50;;
21729;SDS011;11027;51.030;13.812;2023-06-14T12:31:55;2.58;;;2.38;;
21729;SDS011;11027;51.030;13.812;2023-06-14T12:34:22;8.18;;;2.70;;
21729;SDS011;11027;51.030;13.812;2023-06-14T12:36:47;8.50;;;3.85;;
21729;SDS011;11027;51.030;13.812;2023-06-14T12:39:13;5.68;;;2.58;;
21729;SDS011;11027;51.030;13.812;2023-06-14T12:41:38;2.63;;;2.35;;
21729;SDS011;11027;51.030;13.812;2023-06-14T12:44:06;5.00;;;2.30;;
21729;SDS011;11027;51.030;13.812;2023-06-14T12:46:31;3.72;;;2.33;;
21729;SDS011;11027;51.030;13.812;2023-06-14T12:48:57;6.22;;;2.25;;
21729;SDS011;11027;51.030;13.812;2023-06-14T12:51:22;4.10;;;2.30;;
21729;SDS011;11027;51.030;13.812;2023-06-14T12:53:48;2.58;;;2.28;;
21729;SDS011;11027;51.030;13.812;2023-06-14T12:56:14;8.95;;;2.90;;
21729;SDS011;11027;51.030;13.812;2023-06-14T12:58:39;6.97;;;2.63;;
21729;SDS011;11027;51.030;13.812;2023-06-14T13:01:04;5.93;;;2.75;;
21729;SDS011;11027;51.030;13.812;2023-06-14T13:03:29;3.70;;;2.70;;
21729;SDS011;11027;51.030;13.812;2023-06-14T13:05:55;8.30;;;2.38;;
21729;SDS011;11027;51.030;13.812;2023-06-14T13:08:20;4.43;;;2.33;;
21729;SDS011;11027;51.030;13.812;2023-06-14T13:10:45;4.22;;;2.00;;
21729;SDS011;11027;51.030;13.812;2023-06-14T13:13:10;2.45;;;2.25;;
21729;SDS011;11027;51.030;13.812;2023-06-14T13:15:37;5.20;;;2.30;;
21729;SDS011;11027;51.030;13.812;2023-06-14T13:18:03;3.53;;;1.98;;
21729;SDS011;11027;51.030;13.812;2023-06-14T13:20:28;2.80;;;2.10;;
21729;SDS011;11027;51.030;13.812;2023-06-14T13:22:54;2.55;;;2.13;;
21729;SDS011;11027;51.030;13.812;2023-06-14T13:25:19;2.30;;;2.10;;
21729;SDS011;11027;51.030;13.812;2023-06-14T13:27:45;5.70;;;2.00;;
21729;SDS011;11027;51.030;13.812;2023-06-14T13:30:10;6.43;;;2.30;;
21729;SDS011;11027;51.030;13.812;2023-06-14T13:32:36;3.58;;;2.40;;
21729;SDS011;11027;51.030;13.812;2023-06-14T13:35:01;7.30;;;2.60;;
21729;SDS011;11027;51.030;13.812;2023-06-14T13:37:26;3.47;;;2.63;;
21729;SDS011;11027;51.030;13.812;2023-06-14T13:39:52;4.32;;;2.50;;
21729;SDS011;11027;51.030;13.812;2023-06-14T13:42:17;4.57;;;2.15;;
21729;SDS011;11027;51.030;13.812;2023-06-14T13:44:43;4.00;;;2.10;;
21729;SDS011;11027;51.030;13.812;2023-06-14T13:47:08;5.00;;;2.23;;
21729;SDS011;11027;51.030;13.812;2023-06-14T13:49:33;3.53;;;1.67;;
21729;SDS011;11027;51.030;13.812;2023-06-14T13:52:00;4.80;;;1.80;;
21729;SDS011;11027;51.030;13.812;2023-06-14T13:54:26;1.75;;;1.40;;
21729;SDS011;11027;51.030;13.812;2023-06-14T13:56:51;2.50;;;1.70;;
21729;SDS011;11027;51.030;13.812;2023-06-14T13:59:17;4.47;;;1.73;;
21729;SDS011;11027;51.030;13.812;2023-06-14T14:01:42;3.15;;;1.40;;
21729;SDS011;11027;51.030;13.812;2023-06-14T14:04:07;5.43;;;1.80;;
21729;SDS011;11027;51.030;13.812;2023-06-14T14:06:33;2.35;;;1.30;;
21729;SDS011;11027;51.030;13.812;2023-06-14T14:08:58;5.67;;;1.63;;
21729;SDS011;11027;51.030;13.812;2023-06-14T14:11:24;2.90;;;1.42;;
21729;SDS011;11027;51.030;13.812;2023-06-14T14:13:49;4.53;;;1.60;;
21729;SDS011;11027;51.030;13.812;2023-06-14T14:16:14;1.47;;;1.37;;
21729;SDS011;11027;51.030;13.812;2023-06-14T14:18:40;6.07;;;1.80;;
21729;SDS011;11027;51.030;13.812;2023-06-14T14:21:05;4.85;;;2.00;;
21729;SDS011;11027;51.030;13.812;2023-06-14T14:23:30;2.85;;;1.67;;
21729;SDS011;11027;51.030;13.812;2023-06-14T14:25:56;6.03;;;2.00;;
21729;SDS011;11027;51.030;13.812;2023-06-14T14:28:21;3.65;;;2.00;;
21729;SDS011;11027;51.030;13.812;2023-06-14T14:30:47;2.95;;;1.50;;
21729;SDS011;11027;51.030;13.812;2023-06-14T14:33:13;4.03;;;1.60;;
21729;SDS011;11027;51.030;13.812;2023-06-14T14:35:44;3.55;;;1.70;;
21729;SDS011;11027;51.030;13.812;2023-06-14T14:38:13;3.50;;;1.60;;
21729;SDS011;11027;51.030;13.812;2023-06-14T14:40:40;2.90;;;2.08;;
21729;SDS011;11027;51.030;13.812;2023-06-14T14:43:06;2.45;;;1.60;;
21729;SDS011;11027;51.030;13.812;2023-06-14T14:45:31;2.50;;;1.65;;